Time;durP1;ratioP1;P1;durP2;ratioP2;P2;SDS_P1;SDS_P2;PMS_P1;PMS_P2;Temp;Humidity;BMP_temperature;BMP_pressure;BME280_temperature;BME280_humidity;BME280_pressure;Samples;Min_cycle;Max_cycle;Signal;HPM_P1;HPM_P2
2021/03/26 00:01:52;;;;;;;8.77;2.10;;;12.40;76.30;;;;;;5043308;28;20809;-75
2021/03/26 00:04:19;;;;;;;5.82;1.63;;;12.40;76.20;;;;;;5043803;28;20463;-75
2021/03/26 00:06:47;;;;;;;8.77;2.00;;;12.30;76.30;;;;;;5028644;28;20508;-74
2021/03/26 00:09:17;;;;;;;9.82;2.38;;;12.30;76.70;;;;;;5041991;28;20438;-74
2021/03/26 00:11:45;;;;;;;8.65;2.13;;;12.20;76.90;;;;;;5045255;28;20425;-75
2021/03/26 00:14:11;;;;;;;7.40;2.30;;;12.20;77.20;;;;;;5042079;28;20906;-74
2021/03/26 00:16:38;;;;;;;8.55;2.30;;;12.20;77.50;;;;;;5044417;28;20429;-74
2021/03/26 00:19:05;;;;;;;8.32;2.05;;;12.20;77.50;;;;;;5041746;28;20433;-75
2021/03/26 00:21:31;;;;;;;7.85;2.13;;;12.10;78.40;;;;;;5045451;28;20425;-78
2021/03/26 00:23:58;;;;;;;10.48;2.35;;;12.10;78.00;;;;;;5041653;28;20496;-75
2021/03/26 00:26:25;;;;;;;6.60;2.08;;;12.10;78.00;;;;;;5042901;28;20448;-76
2021/03/26 00:28:52;;;;;;;6.13;2.00;;;12.10;78.30;;;;;;5042115;28;20436;-75
2021/03/26 00:31:19;;;;;;;7.68;2.10;;;12.10;78.50;;;;;;5028007;28;20914;-73
2021/03/26 00:33:46;;;;;;;8.30;2.20;;;12.00;78.70;;;;;;5044210;28;20436;-75
2021/03/26 00:36:13;;;;;;;7.47;2.55;;;12.00;78.80;;;;;;5044425;28;20789;-75
2021/03/26 00:38:40;;;;;;;6.07;2.25;;;12.00;78.90;;;;;;5044772;28;20452;-77
2021/03/26 00:41:06;;;;;;;7.50;2.20;;;12.00;79.10;;;;;;5041631;28;21032;-75
2021/03/26 00:43:34;;;;;;;8.15;2.30;;;12.00;79.30;;;;;;5027136;28;20425;-76
2021/03/26 00:46:01;;;;;;;8.30;2.28;;;11.90;79.60;;;;;;5027239;28;20417;-75
2021/03/26 00:48:27;;;;;;;9.50;2.45;;;11.90;79.80;;;;;;5027356;28;20474;-76
2021/03/26 00:50:57;;;;;;;5.57;2.53;;;11.80;80.10;;;;;;5043111;28;20437;-76
2021/03/26 00:53:26;;;;;;;9.02;2.20;;;11.80;80.30;;;;;;5048298;28;20420;-75
2021/03/26 00:55:54;;;;;;;7.68;2.30;;;11.80;80.60;;;;;;5047260;28;20421;-75
2021/03/26 00:58:22;;;;;;;10.35;2.33;;;11.80;80.90;;;;;;5047597;28;20443;-75
2021/03/26 01:00:50;;;;;;;8.50;2.40;;;11.70;81.00;;;;;;5027064;28;20463;-75
2021/03/26 01:03:18;;;;;;;9.73;2.45;;;11.70;81.40;;;;;;5027986;28;20462;-75
2021/03/26 01:05:50;;;;;;;9.05;2.63;;;11.70;81.70;;;;;;5047292;28;20541;-76
2021/03/26 01:08:18;;;;;;;12.20;2.87;;;11.60;81.70;;;;;;5031677;28;20460;-75
2021/03/26 01:10:48;;;;;;;8.45;2.50;;;11.60;82.20;;;;;;5031295;28;20802;-76
2021/03/26 01:13:16;;;;;;;9.50;2.75;;;11.60;82.50;;;;;;5025106;28;20438;-76
2021/03/26 01:15:44;;;;;;;10.10;2.50;;;11.60;82.60;;;;;;5029462;28;20508;-76
2021/03/26 01:18:20;;;;;;;11.70;2.90;;;11.50;82.80;;;;;;5029146;28;20945;-75
2021/03/26 01:20:47;;;;;;;9.88;3.03;;;11.50;82.90;;;;;;5047318;28;20890;-76
2021/03/26 01:23:14;;;;;;;10.57;2.97;;;11.50;83.00;;;;;;5046982;28;20429;-75
2021/03/26 01:25:42;;;;;;;10.07;3.05;;;11.50;83.30;;;;;;5048019;28;20504;-76
2021/03/26 01:28:31;;;;;;;10.32;3.05;;;11.50;83.40;;;;;;5016668;28;20422;-73
2021/03/26 01:31:23;;;;;;;13.10;3.38;;;11.50;83.90;;;;;;5045796;28;20436;-74
2021/03/26 01:33:52;;;;;;;9.30;3.20;;;11.50;85.50;;;;;;5029444;28;20439;-75
2021/03/26 01:36:19;;;;;;;10.25;3.28;;;11.50;87.10;;;;;;5048026;28;20463;-75
2021/03/26 01:38:45;;;;;;;9.40;3.10;;;11.50;86.70;;;;;;5027681;28;20442;-76
2021/03/26 01:41:17;;;;;;;10.90;3.20;;;11.50;87.10;;;;;;5047334;28;20421;-76
2021/03/26 01:43:44;;;;;;;10.95;3.17;;;11.50;87.30;;;;;;5029248;28;20524;-76
2021/03/26 01:46:14;;;;;;;12.75;3.70;;;11.50;87.50;;;;;;5029766;28;20421;-75
2021/03/26 01:48:43;;;;;;;10.77;3.45;;;11.50;90.50;;;;;;5027761;28;20417;-76
2021/03/26 01:51:14;;;;;;;10.07;3.42;;;11.50;90.90;;;;;;5030699;28;20441;-75
2021/03/26 01:53:41;;;;;;;12.68;3.70;;;11.40;91.40;;;;;;5028656;28;20433;-75
2021/03/26 01:56:08;;;;;;;11.52;3.90;;;11.40;91.20;;;;;;5026777;28;21008;-75
2021/03/26 01:58:44;;;;;;;9.90;3.65;;;11.30;91.20;;;;;;5028286;28;20520;-74
2021/03/26 02:01:14;;;;;;;10.65;3.80;;;11.30;91.50;;;;;;5042747;28;20500;-74
2021/03/26 02:03:43;;;;;;;9.68;3.42;;;11.20;91.90;;;;;;5026527;28;20428;-74
2021/03/26 02:06:16;;;;;;;11.55;3.60;;;11.20;91.70;;;;;;5046201;28;20429;-75
2021/03/26 02:08:46;;;;;;;9.73;3.60;;;11.20;91.80;;;;;;5027107;28;20428;-75
2021/03/26 02:11:20;;;;;;;12.32;3.50;;;11.20;92.00;;;;;;5029673;28;20432;-74
2021/03/26 02:13:48;;;;;;;9.77;3.45;;;11.10;92.00;;;;;;5028909;28;20843;-75
2021/03/26 02:16:23;;;;;;;9.20;3.60;;;11.10;91.70;;;;;;5026435;28;20768;-76
2021/03/26 02:19:11;;;;;;;12.18;3.90;;;11.10;91.80;;;;;;5027670;28;20952;-75
2021/03/26 02:21:38;;;;;;;13.57;3.90;;;11.00;91.90;;;;;;5027575;28;21000;-75
2021/03/26 02:24:09;;;;;;;11.02;3.90;;;11.00;91.90;;;;;;5042222;28;20547;-76
2021/03/26 02:26:42;;;;;;;8.33;3.70;;;11.00;92.00;;;;;;5030029;28;20433;-76
2021/03/26 02:29:24;;;;;;;13.45;4.40;;;11.00;92.20;;;;;;5044952;28;20443;-76
2021/03/26 02:32:19;;;;;;;11.55;4.20;;;11.00;92.10;;;;;;5027438;28;20433;-77
2021/03/26 02:35:05;;;;;;;11.63;4.10;;;11.00;92.10;;;;;;5046380;28;20447;-76
2021/03/26 02:37:32;;;;;;;11.63;4.22;;;11.00;92.30;;;;;;5026262;28;20479;-76
2021/03/26 02:40:00;;;;;;;13.27;4.70;;;11.10;92.20;;;;;;5025645;28;20428;-75
2021/03/26 02:42:32;;;;;;;10.13;5.07;;;11.10;92.00;;;;;;5027191;28;20436;-76
2021/03/26 02:45:09;;;;;;;13.20;4.75;;;11.10;91.80;;;;;;5041388;28;20425;-75
2021/03/26 02:47:58;;;;;;;14.23;4.93;;;11.10;91.30;;;;;;5029199;28;20999;-74
2021/03/26 02:50:56;;;;;;;15.63;5.20;;;11.10;91.30;;;;;;5044593;28;20464;-75
2021/03/26 02:53:48;;;;;;;10.95;4.80;;;11.10;91.20;;;;;;5025790;28;20943;-75
2021/03/26 02:56:22;;;;;;;14.75;5.00;;;11.10;91.00;;;;;;5027472;28;20431;-75
2021/03/26 02:58:59;;;;;;;10.85;5.03;;;11.10;91.00;;;;;;5026076;28;20449;-75
2021/03/26 03:01:31;;;;;;;12.75;5.22;;;11.10;90.90;;;;;;5025340;28;20417;-76
2021/03/26 03:04:03;;;;;;;11.93;5.00;;;11.10;90.70;;;;;;5027686;28;20433;-74
2021/03/26 03:06:35;;;;;;;14.60;5.30;;;11.10;90.60;;;;;;5028278;28;20464;-76
2021/03/26 03:09:24;;;;;;;13.55;5.70;;;11.10;90.70;;;;;;5024727;28;20530;-75
2021/03/26 03:11:57;;;;;;;12.73;5.15;;;11.10;90.20;;;;;;5028431;28;20782;-75
2021/03/26 03:14:28;;;;;;;18.65;5.32;;;11.00;90.00;;;;;;5026052;28;20445;-76
2021/03/26 03:17:00;;;;;;;13.55;5.32;;;11.10;90.00;;;;;;5027854;28;20429;-74
2021/03/26 03:19:36;;;;;;;15.25;5.95;;;11.10;90.00;;;;;;5025978;28;20956;-75
2021/03/26 03:22:07;;;;;;;13.70;5.88;;;11.10;90.20;;;;;;5027371;28;20483;-76
2021/03/26 03:24:37;;;;;;;11.13;5.97;;;11.10;90.10;;;;;;5043110;28;20432;-75
2021/03/26 03:27:17;;;;;;;14.68;6.13;;;11.10;90.00;;;;;;5039383;28;20430;-76
2021/03/26 03:29:49;;;;;;;13.38;6.55;;;11.10;89.90;;;;;;5025765;28;20440;-74
2021/03/26 03:32:37;;;;;;;13.15;6.45;;;11.10;90.60;;;;;;5028724;28;20473;-75
2021/03/26 03:35:15;;;;;;;14.77;7.00;;;11.10;92.10;;;;;;5027881;28;20858;-74
2021/03/26 03:37:55;;;;;;;12.57;6.85;;;11.10;92.10;;;;;;5040500;28;20433;-74
2021/03/26 03:40:29;;;;;;;17.33;7.18;;;11.00;92.10;;;;;;5023422;28;20496;-75
2021/03/26 03:43:04;;;;;;;15.75;7.13;;;11.00;92.00;;;;;;5041685;28;20418;-75
2021/03/26 03:45:39;;;;;;;16.58;7.35;;;10.90;92.20;;;;;;5026327;28;20430;-75
2021/03/26 03:48:18;;;;;;;18.27;7.97;;;10.90;92.80;;;;;;5038385;28;20434;-74
2021/03/26 03:50:56;;;;;;;16.10;8.88;;;10.90;93.50;;;;;;5021917;28;20438;-76
2021/03/26 03:53:29;;;;;;;16.65;9.27;;;10.80;94.20;;;;;;5022609;28;20463;-76
2021/03/26 03:56:21;;;;;;;15.20;9.13;;;10.80;94.70;;;;;;5035167;28;20435;-75
2021/03/26 03:58:57;;;;;;;18.48;9.50;;;10.80;95.10;;;;;;5022912;28;20505;-76
2021/03/26 04:01:30;;;;;;;20.30;10.23;;;10.70;95.40;;;;;;5021130;28;20502;-76
2021/03/26 04:04:04;;;;;;;22.38;10.75;;;10.70;96.10;;;;;;5021031;28;20434;-77
2021/03/26 04:06:47;;;;;;;19.27;10.60;;;10.60;96.20;;;;;;5022065;28;20434;-75
2021/03/26 04:09:17;;;;;;;18.27;11.00;;;10.60;96.50;;;;;;5023130;28;20427;-76
2021/03/26 04:11:54;;;;;;;20.85;11.27;;;10.50;96.70;;;;;;5022367;28;20490;-75
2021/03/26 04:14:49;;;;;;;20.67;11.00;;;10.50;97.20;;;;;;5023503;28;20440;-75
2021/03/26 04:17:21;;;;;;;17.17;10.80;;;10.50;97.30;;;;;;5019162;28;20438;-75
2021/03/26 04:19:51;;;;;;;18.30;11.35;;;10.50;97.60;;;;;;5024368;28;20427;-76
2021/03/26 04:22:22;;;;;;;19.98;12.20;;;10.50;97.80;;;;;;5021743;28;20435;-76
2021/03/26 04:25:09;;;;;;;18.53;11.90;;;10.50;98.10;;;;;;5023606;28;20466;-76
2021/03/26 04:27:39;;;;;;;20.27;12.07;;;10.50;97.90;;;;;;5028464;28;20433;-75
2021/03/26 04:30:19;;;;;;;19.98;11.82;;;10.50;97.90;;;;;;5026087;28;20427;-75
2021/03/26 04:32:55;;;;;;;21.08;11.90;;;10.60;98.00;;;;;;5028631;28;20989;-74
2021/03/26 04:35:24;;;;;;;19.92;11.90;;;10.50;97.90;;;;;;5041709;28;20430;-77
2021/03/26 04:38:04;;;;;;;22.60;12.77;;;10.50;98.10;;;;;;5027043;28;20437;-76
2021/03/26 04:40:35;;;;;;;23.03;12.07;;;10.50;97.80;;;;;;5023759;28;22454;-76
2021/03/26 04:43:11;;;;;;;22.52;12.45;;;10.50;97.70;;;;;;5024512;28;20974;-76
2021/03/26 04:45:45;;;;;;;21.52;12.38;;;10.60;97.60;;;;;;5025563;28;20921;-74
2021/03/26 04:48:38;;;;;;;19.20;12.02;;;10.50;97.60;;;;;;5028620;28;20453;-76
2021/03/26 04:51:36;;;;;;;23.95;12.82;;;10.60;97.60;;;;;;5024389;28;20435;-75
2021/03/26 04:54:35;;;;;;;20.30;12.63;;;10.60;97.40;;;;;;5013639;28;20950;-76
2021/03/26 04:57:30;;;;;;;21.25;12.55;;;10.60;97.40;;;;;;5006063;28;20848;-75
2021/03/26 05:00:05;;;;;;;23.17;13.43;;;10.60;97.50;;;;;;5025169;28;20522;-76
2021/03/26 05:02:36;;;;;;;22.13;13.47;;;10.70;97.40;;;;;;5026898;28;20526;-76
2021/03/26 05:05:05;;;;;;;21.45;13.88;;;10.70;97.40;;;;;;5027832;28;20431;-76
2021/03/26 05:07:55;;;;;;;27.80;14.43;;;10.70;97.20;;;;;;5025267;28;20431;-78
2021/03/26 05:10:24;;;;;;;25.52;14.35;;;10.70;97.30;;;;;;5024164;28;20473;-77
2021/03/26 05:13:18;;;;;;;26.00;15.35;;;10.70;97.20;;;;;;5025815;28;20429;-76
2021/03/26 05:15:50;;;;;;;27.25;15.23;;;10.70;97.50;;;;;;5025491;28;20426;-77
2021/03/26 05:18:28;;;;;;;25.52;15.25;;;10.70;97.50;;;;;;5026530;28;20441;-77
2021/03/26 05:21:04;;;;;;;26.52;15.60;;;10.70;97.40;;;;;;5024223;28;20489;-76
2021/03/26 05:23:55;;;;;;;26.15;15.88;;;10.70;97.50;;;;;;5028054;28;20429;-75
2021/03/26 05:26:44;;;;;;;24.35;15.60;;;10.70;97.40;;;;;;5025241;28;20900;-75
2021/03/26 05:29:35;;;;;;;28.55;15.93;;;10.70;97.50;;;;;;5017827;28;20473;-76
2021/03/26 05:32:11;;;;;;;26.88;16.20;;;10.80;97.50;;;;;;5024119;28;20423;-75
2021/03/26 05:35:17;;;;;;;25.95;16.02;;;10.80;97.50;;;;;;5027008;28;20477;-75
2021/03/26 05:38:00;;;;;;;25.63;16.23;;;10.80;97.50;;;;;;5025483;28;20434;-76
2021/03/26 05:41:08;;;;;;;26.87;15.93;;;10.80;97.50;;;;;;5027153;28;20453;-75
2021/03/26 05:44:18;;;;;;;24.10;15.93;;;10.80;97.40;;;;;;5027700;28;20530;-77
2021/03/26 05:47:09;;;;;;;24.17;15.50;;;10.80;97.40;;;;;;5023813;28;21307;-76
2021/03/26 05:49:58;;;;;;;25.45;15.98;;;10.80;97.50;;;;;;5006532;28;20931;-75
2021/03/26 05:52:53;;;;;;;27.45;15.95;;;10.80;97.40;;;;;;5005443;28;20436;-76
2021/03/26 05:55:41;;;;;;;24.17;15.60;;;10.90;97.40;;;;;;4993839;28;20475;-73
2021/03/26 05:58:29;;;;;;;25.42;15.45;;;10.80;97.20;;;;;;5035481;28;20456;-76
2021/03/26 06:01:34;;;;;;;25.30;15.23;;;10.90;97.20;;;;;;5009653;28;20435;-77
2021/03/26 06:04:40;;;;;;;24.88;15.07;;;10.90;97.10;;;;;;5007079;28;20491;-76
2021/03/26 06:07:39;;;;;;;27.65;15.98;;;10.90;97.10;;;;;;5005681;28;21067;-75
2021/03/26 06:10:49;;;;;;;26.02;15.55;;;11.00;97.10;;;;;;5003789;28;20534;-79
2021/03/26 06:14:15;;;;;;;24.33;14.57;;;11.00;97.30;;;;;;4960596;28;20451;-81
2021/03/26 06:17:19;;;;;;;25.35;15.30;;;11.00;97.20;;;;;;5003801;28;20520;-76
2021/03/26 06:20:32;;;;;;;21.77;14.32;;;11.00;97.20;;;;;;5003528;28;20964;-75
2021/03/26 06:23:26;;;;;;;24.83;14.30;;;11.00;97.20;;;;;;5003715;28;21175;-77
2021/03/26 06:26:19;;;;;;;24.77;15.00;;;11.00;97.00;;;;;;5004727;28;20956;-76
2021/03/26 06:28:54;;;;;;;25.58;14.82;;;11.10;97.20;;;;;;5003353;28;20483;-76
2021/03/26 06:32:22;;;;;;;27.35;15.15;;;11.10;97.10;;;;;;5005810;28;20439;-76
2021/03/26 06:35:12;;;;;;;27.23;15.20;;;11.10;96.90;;;;;;5006216;28;20786;-75
2021/03/26 06:38:04;;;;;;;25.20;14.85;;;11.10;96.80;;;;;;5004961;28;20463;-76
2021/03/26 06:40:52;;;;;;;23.40;14.32;;;11.10;97.10;;;;;;5003867;28;20445;-76
2021/03/26 06:43:45;;;;;;;24.63;14.57;;;11.20;96.90;;;;;;5005736;28;22110;-77
2021/03/26 06:46:25;;;;;;;26.10;15.37;;;11.20;96.90;;;;;;5003040;28;20440;-75
2021/03/26 06:48:59;;;;;;;27.15;16.08;;;11.20;97.10;;;;;;5026017;28;20499;-75
2021/03/26 06:51:57;;;;;;;26.10;16.23;;;11.30;97.00;;;;;;5044734;28;20832;-74
2021/03/26 06:54:47;;;;;;;26.23;16.97;;;11.30;97.10;;;;;;5043761;28;20472;-75
2021/03/26 06:57:44;;;;;;;30.92;18.02;;;11.30;97.20;;;;;;4989977;28;20465;-75
2021/03/26 07:00:28;;;;;;;27.80;17.42;;;11.30;97.30;;;;;;5046417;28;20782;-76
2021/03/26 07:03:30;;;;;;;30.30;18.60;;;11.30;97.20;;;;;;5047203;28;20490;-75
2021/03/26 07:06:09;;;;;;;29.83;19.07;;;11.40;97.20;;;;;;5029836;28;20918;-77
2021/03/26 07:09:03;;;;;;;30.20;19.00;;;11.40;97.10;;;;;;5047433;28;20425;-78
2021/03/26 07:11:57;;;;;;;30.77;19.63;;;11.40;96.80;;;;;;5040163;28;20437;-76
2021/03/26 07:14:43;;;;;;;32.47;19.30;;;11.30;96.90;;;;;;5030672;28;20933;-75
2021/03/26 07:17:47;;;;;;;30.85;19.77;;;11.40;97.00;;;;;;5046975;28;20415;-76
2021/03/26 07:21:07;;;;;;;29.85;19.70;;;11.30;96.80;;;;;;5021306;28;20794;-77
2021/03/26 07:24:10;;;;;;;31.27;18.80;;;11.30;96.80;;;;;;4985301;28;20479;-77
2021/03/26 07:26:49;;;;;;;30.98;19.27;;;11.30;96.70;;;;;;5042015;28;20420;-75
2021/03/26 07:29:33;;;;;;;32.17;19.02;;;11.30;96.80;;;;;;5030066;28;20480;-77
2021/03/26 07:32:33;;;;;;;31.65;18.67;;;11.30;96.80;;;;;;5045625;28;20432;-75
2021/03/26 07:35:29;;;;;;;31.48;18.85;;;11.30;96.70;;;;;;5032410;28;20494;-75
2021/03/26 07:38:14;;;;;;;33.00;18.02;;;11.30;96.80;;;;;;5030813;28;20433;-76
2021/03/26 07:40:51;;;;;;;27.98;18.50;;;11.30;96.60;;;;;;5046670;28;20429;-76
2021/03/26 07:43:44;;;;;;;30.27;19.92;;;11.30;96.60;;;;;;5029775;28;20425;-76
2021/03/26 07:46:55;;;;;;;29.98;17.77;;;11.30;96.50;;;;;;5047328;28;20432;-75
2021/03/26 07:49:57;;;;;;;28.90;17.77;;;11.30;96.40;;;;;;4983921;28;20486;-76
2021/03/26 07:52:29;;;;;;;28.67;17.85;;;11.30;96.30;;;;;;5028788;28;20420;-77
2021/03/26 07:55:14;;;;;;;30.63;17.38;;;11.30;96.30;;;;;;5047008;28;20436;-76
2021/03/26 07:57:56;;;;;;;28.27;16.80;;;11.30;96.30;;;;;;5047321;28;20898;-77
2021/03/26 08:00:48;;;;;;;31.08;17.25;;;11.40;96.20;;;;;;5044729;28;20421;-77
2021/03/26 08:03:36;;;;;;;26.97;16.40;;;11.40;96.20;;;;;;5022909;28;20428;-75
2021/03/26 08:06:19;;;;;;;24.85;16.63;;;11.40;96.20;;;;;;5038018;28;20453;-75
2021/03/26 08:09:02;;;;;;;27.27;15.85;;;11.50;96.10;;;;;;5028514;28;20436;-77
2021/03/26 08:11:50;;;;;;;25.85;15.43;;;11.50;96.00;;;;;;5046300;28;20431;-77
2021/03/26 08:14:49;;;;;;;23.55;15.32;;;11.50;96.10;;;;;;5047330;28;20432;-74
2021/03/26 08:17:25;;;;;;;25.50;15.38;;;11.60;96.00;;;;;;5046844;28;21043;-77
2021/03/26 08:20:05;;;;;;;27.63;16.00;;;11.60;96.10;;;;;;5041705;28;20768;-75
2021/03/26 08:22:39;;;;;;;22.58;14.60;;;11.70;96.20;;;;;;5045940;28;20431;-75
2021/03/26 08:25:28;;;;;;;24.02;14.77;;;11.80;95.80;;;;;;5047438;28;20440;-75
2021/03/26 08:28:09;;;;;;;22.45;13.98;;;11.80;95.80;;;;;;5046459;28;20420;-74
2021/03/26 08:30:46;;;;;;;24.47;14.07;;;11.90;95.70;;;;;;5045311;28;20467;-73
2021/03/26 08:33:31;;;;;;;24.00;14.32;;;12.00;95.40;;;;;;5045902;28;20417;-73
2021/03/26 08:36:20;;;;;;;21.52;13.05;;;12.10;95.40;;;;;;5043655;28;20512;-74
2021/03/26 08:39:18;;;;;;;25.48;13.15;;;12.20;94.90;;;;;;5045071;28;20424;-80
2021/03/26 08:41:52;;;;;;;21.60;12.60;;;12.30;94.70;;;;;;5009782;28;21665;-75
2021/03/26 08:44:21;;;;;;;21.48;12.20;;;12.30;94.50;;;;;;5032455;28;20433;-76
2021/03/26 08:46:50;;;;;;;22.25;13.32;;;12.40;94.20;;;;;;5040827;28;20428;-75
2021/03/26 08:49:37;;;;;;;19.20;11.48;;;12.40;94.30;;;;;;5028483;28;20482;-76
2021/03/26 08:52:36;;;;;;;24.50;12.10;;;12.50;94.00;;;;;;5041581;28;20439;-75
2021/03/26 08:55:36;;;;;;;21.25;11.27;;;12.50;93.60;;;;;;5044198;28;20479;-74
2021/03/26 08:58:20;;;;;;;21.63;11.18;;;12.60;93.20;;;;;;5041538;28;20513;-74
2021/03/26 09:01:19;;;;;;;20.95;10.82;;;12.60;93.10;;;;;;5025526;28;20433;-75
2021/03/26 09:03:58;;;;;;;18.70;10.65;;;12.70;93.00;;;;;;5044112;28;20909;-77
2021/03/26 09:06:49;;;;;;;17.33;10.07;;;12.70;93.00;;;;;;5024080;28;20436;-76
2021/03/26 09:09:40;;;;;;;20.07;10.60;;;12.80;92.70;;;;;;5027713;28;20424;-75
2021/03/26 09:12:19;;;;;;;18.70;9.82;;;12.80;92.60;;;;;;5045029;28;20478;-77
2021/03/26 09:15:19;;;;;;;17.52;10.05;;;12.90;92.20;;;;;;5049611;28;21012;-74
2021/03/26 09:17:52;;;;;;;17.33;9.73;;;12.90;92.40;;;;;;5049238;28;20436;-75
2021/03/26 09:20:27;;;;;;;18.30;10.00;;;13.00;91.70;;;;;;5047540;28;20458;-75
2021/03/26 09:23:45;;;;;;;16.73;10.13;;;13.00;91.70;;;;;;5040352;28;20480;-75
2021/03/26 09:26:35;;;;;;;15.32;9.02;;;13.10;91.50;;;;;;5043549;28;20425;-75
2021/03/26 09:29:08;;;;;;;16.58;8.73;;;13.10;91.10;;;;;;5048913;28;20478;-75
2021/03/26 09:31:42;;;;;;;16.67;8.60;;;13.10;90.90;;;;;;5045726;28;20429;-75
2021/03/26 09:34:21;;;;;;;18.70;9.57;;;13.30;90.80;;;;;;5041937;28;20427;-73
2021/03/26 09:37:06;;;;;;;17.73;8.52;;;13.30;90.80;;;;;;5047310;28;20486;-75
2021/03/26 09:39:33;;;;;;;18.05;8.88;;;13.40;90.40;;;;;;5022507;28;20437;-73
2021/03/26 09:42:13;;;;;;;20.00;8.63;;;13.40;90.30;;;;;;5045210;28;20425;-76
2021/03/26 09:44:46;;;;;;;16.30;7.93;;;13.50;90.30;;;;;;5049352;28;20432;-77
2021/03/26 09:47:18;;;;;;;12.23;7.03;;;13.60;89.90;;;;;;5045217;28;20502;-75
2021/03/26 09:49:51;;;;;;;16.50;7.77;;;13.60;88.80;;;;;;5048304;28;20425;-75
2021/03/26 09:52:24;;;;;;;14.55;7.80;;;13.70;88.60;;;;;;5046576;28;20429;-76
2021/03/26 09:54:53;;;;;;;18.52;7.80;;;13.70;88.70;;;;;;5043465;28;20430;-75
2021/03/26 09:57:30;;;;;;;13.43;7.35;;;13.80;88.40;;;;;;5041904;28;20463;-76
2021/03/26 10:00:15;;;;;;;15.10;7.25;;;13.80;87.00;;;;;;5046429;28;20437;-75
2021/03/26 10:02:55;;;;;;;16.05;7.25;;;13.80;86.20;;;;;;5048021;28;20873;-75
2021/03/26 10:05:33;;;;;;;16.10;7.10;;;13.90;86.50;;;;;;5046461;28;20429;-76
2021/03/26 10:08:07;;;;;;;13.55;6.70;;;13.90;85.80;;;;;;5046839;28;20433;-77
2021/03/26 10:10:44;;;;;;;13.85;6.75;;;14.00;84.90;;;;;;5047495;28;20867;-76
2021/03/26 10:13:15;;;;;;;15.48;7.30;;;14.00;83.70;;;;;;5048431;28;20497;-76
2021/03/26 10:15:47;;;;;;;17.50;6.72;;;14.00;85.00;;;;;;5045950;28;20432;-74
2021/03/26 10:18:17;;;;;;;16.00;7.22;;;14.10;83.90;;;;;;5041704;28;20917;-75
2021/03/26 10:20:51;;;;;;;13.40;7.27;;;14.20;82.60;;;;;;5046733;28;21233;-75
2021/03/26 10:23:35;;;;;;;13.57;7.35;;;14.30;82.20;;;;;;5045163;28;20436;-75
2021/03/26 10:26:11;;;;;;;14.57;7.38;;;14.40;81.50;;;;;;5045452;28;20505;-76
2021/03/26 10:29:12;;;;;;;13.25;6.70;;;14.40;81.10;;;;;;5046381;28;20421;-77
2021/03/26 10:31:42;;;;;;;13.60;6.43;;;14.40;80.10;;;;;;5043536;28;20464;-76
2021/03/26 10:34:12;;;;;;;16.25;7.03;;;14.50;80.00;;;;;;5047387;28;20432;-75
2021/03/26 10:36:50;;;;;;;13.52;6.45;;;14.60;79.30;;;;;;5044609;28;20420;-75
2021/03/26 10:39:19;;;;;;;14.60;6.25;;;14.70;78.70;;;;;;5028855;28;20435;-76
2021/03/26 10:41:59;;;;;;;11.25;5.35;;;14.90;78.00;;;;;;5043922;28;21142;-76
2021/03/26 10:44:35;;;;;;;17.73;5.75;;;15.10;76.40;;;;;;5045110;28;20429;-77
2021/03/26 10:47:14;;;;;;;12.10;5.80;;;15.20;75.20;;;;;;5045102;28;20425;-76
2021/03/26 10:49:45;;;;;;;13.13;4.63;;;15.30;74.60;;;;;;5045204;28;20444;-76
2021/03/26 10:52:16;;;;;;;11.37;5.30;;;15.30;72.90;;;;;;5041984;28;20433;-76
2021/03/26 10:54:47;;;;;;;9.85;4.88;;;15.30;72.20;;;;;;5026646;28;20425;-75
2021/03/26 10:57:35;;;;;;;10.55;4.20;;;15.30;72.10;;;;;;5044196;28;20514;-76
2021/03/26 11:00:09;;;;;;;8.73;3.40;;;15.30;71.50;;;;;;5046472;28;20429;-75
2021/03/26 11:02:45;;;;;;;9.88;3.42;;;15.30;70.50;;;;;;5044896;28;20936;-76
2021/03/26 11:05:34;;;;;;;10.47;4.10;;;15.30;70.00;;;;;;5045740;28;20774;-77
2021/03/26 11:08:24;;;;;;;12.85;4.10;;;15.40;69.90;;;;;;5043534;28;20525;-76
2021/03/26 11:10:57;;;;;;;9.23;3.80;;;15.40;69.90;;;;;;5044259;28;20520;-74
2021/03/26 11:13:32;;;;;;;9.10;3.53;;;15.40;69.60;;;;;;5045017;28;20440;-74
2021/03/26 11:16:02;;;;;;;8.50;3.40;;;15.30;69.90;;;;;;5043994;28;20429;-76
2021/03/26 11:18:38;;;;;;;7.32;3.33;;;15.30;69.10;;;;;;5047183;28;20480;-76
2021/03/26 11:21:09;;;;;;;8.40;4.30;;;15.30;69.50;;;;;;5043191;28;20452;-75
2021/03/26 11:23:38;;;;;;;8.13;3.60;;;15.30;68.90;;;;;;5046234;28;20882;-75
2021/03/26 11:26:18;;;;;;;10.63;4.18;;;15.30;68.50;;;;;;5044677;28;20456;-75
2021/03/26 11:28:48;;;;;;;8.90;4.03;;;15.30;68.60;;;;;;5046815;28;20439;-76
2021/03/26 11:31:25;;;;;;;10.00;4.22;;;15.40;69.10;;;;;;5039586;28;21152;-75
2021/03/26 11:34:00;;;;;;;11.65;4.50;;;15.50;68.60;;;;;;5046355;28;20432;-74
2021/03/26 11:36:55;;;;;;;10.43;5.20;;;15.50;68.50;;;;;;5026251;28;20953;-74
2021/03/26 11:39:29;;;;;;;14.05;5.57;;;15.60;68.40;;;;;;5044488;28;20416;-74
2021/03/26 11:42:05;;;;;;;10.30;5.55;;;15.70;68.70;;;;;;5043840;28;20428;-75
2021/03/26 11:44:34;;;;;;;13.57;5.85;;;15.80;68.50;;;;;;5044141;28;20430;-75
2021/03/26 11:47:06;;;;;;;10.40;5.80;;;15.80;67.80;;;;;;5046307;28;20433;-75
2021/03/26 11:49:39;;;;;;;14.07;6.20;;;15.90;67.40;;;;;;5043556;28;20432;-74
2021/03/26 11:52:10;;;;;;;15.95;6.70;;;15.90;67.60;;;;;;5042247;28;20432;-75
2021/03/26 11:54:43;;;;;;;11.85;6.20;;;16.00;68.00;;;;;;5045920;28;20428;-76
2021/03/26 11:57:19;;;;;;;12.57;5.57;;;16.10;67.80;;;;;;5027231;28;20421;-75
2021/03/26 12:00:13;;;;;;;11.15;6.00;;;16.10;67.30;;;;;;5045098;28;20905;-76
2021/03/26 12:02:57;;;;;;;12.63;6.28;;;16.10;66.50;;;;;;5026347;28;20837;-75
2021/03/26 12:05:41;;;;;;;11.47;6.20;;;16.10;66.40;;;;;;5042833;28;20429;-75
2021/03/26 12:08:14;;;;;;;13.52;6.40;;;16.00;66.30;;;;;;5044191;28;20425;-75
2021/03/26 12:10:45;;;;;;;10.77;6.40;;;16.00;66.80;;;;;;5027055;28;20437;-76
2021/03/26 12:13:22;;;;;;;11.02;6.60;;;15.90;67.00;;;;;;5046076;28;20436;-75
2021/03/26 12:15:57;;;;;;;11.65;6.80;;;15.90;66.90;;;;;;5041381;28;20940;-75
2021/03/26 12:18:28;;;;;;;14.15;6.80;;;15.90;67.30;;;;;;5027048;28;20439;-75
2021/03/26 12:21:08;;;;;;;11.48;6.57;;;15.90;68.00;;;;;;5040677;28;20425;-75
2021/03/26 12:23:40;;;;;;;14.75;7.03;;;15.80;68.10;;;;;;5039744;28;20427;-74
2021/03/26 12:26:16;;;;;;;13.38;6.72;;;15.90;67.70;;;;;;5024278;28;20419;-74
2021/03/26 12:29:09;;;;;;;11.00;6.70;;;15.90;67.50;;;;;;5043770;28;20781;-75
2021/03/26 12:31:43;;;;;;;14.05;6.50;;;15.90;66.80;;;;;;5042699;28;20433;-74
2021/03/26 12:34:19;;;;;;;11.73;5.85;;;15.90;66.50;;;;;;5046353;28;20429;-75
2021/03/26 12:36:52;;;;;;;12.90;5.90;;;16.00;66.40;;;;;;5043689;28;20474;-75
2021/03/26 12:39:25;;;;;;;13.40;6.55;;;16.10;65.50;;;;;;5039856;28;20430;-77
2021/03/26 12:41:54;;;;;;;14.13;6.20;;;16.20;65.20;;;;;;5024645;28;20451;-75
2021/03/26 12:44:25;;;;;;;12.93;6.20;;;16.20;64.70;;;;;;5044830;28;20463;-77
2021/03/26 12:47:24;;;;;;;13.05;6.30;;;16.20;64.20;;;;;;5028895;28;20494;-74
2021/03/26 12:50:04;;;;;;;8.88;5.10;;;16.10;64.10;;;;;;5030835;28;20516;-74
2021/03/26 12:52:48;;;;;;;12.85;4.97;;;16.10;63.90;;;;;;5046976;28;20996;-73
2021/03/26 12:55:22;;;;;;;14.10;5.80;;;16.20;64.30;;;;;;5042412;28;20441;-75
2021/03/26 12:57:59;;;;;;;12.85;5.45;;;16.30;63.60;;;;;;5041182;28;20432;-75
2021/03/26 13:00:38;;;;;;;11.27;4.35;;;16.40;63.10;;;;;;5028369;28;20439;-74
2021/03/26 13:03:14;;;;;;;9.88;4.25;;;16.40;62.80;;;;;;5047361;28;20431;-74
2021/03/26 13:05:46;;;;;;;10.02;4.03;;;16.30;62.30;;;;;;5046920;28;20431;-75
2021/03/26 13:08:20;;;;;;;8.07;4.07;;;16.30;62.30;;;;;;5049460;28;20435;-74
2021/03/26 13:10:53;;;;;;;8.25;4.18;;;16.30;62.30;;;;;;5046731;28;20432;-75
2021/03/26 13:13:31;;;;;;;8.48;4.05;;;16.20;61.90;;;;;;5046826;28;20832;-73
2021/03/26 13:16:37;;;;;;;9.63;4.15;;;16.30;62.20;;;;;;5025488;28;20429;-76
2021/03/26 13:19:05;;;;;;;7.57;4.03;;;16.30;61.80;;;;;;5022011;28;20496;-74
2021/03/26 13:21:43;;;;;;;6.82;3.60;;;16.30;61.10;;;;;;5048106;28;20486;-75
2021/03/26 13:24:21;;;;;;;9.30;4.30;;;16.30;60.90;;;;;;5045078;28;20451;-74
2021/03/26 13:26:48;;;;;;;9.52;4.05;;;16.20;61.20;;;;;;5046650;28;20431;-73
2021/03/26 13:29:23;;;;;;;10.03;4.50;;;16.20;62.20;;;;;;5046426;28;20421;-72
2021/03/26 13:31:51;;;;;;;8.80;4.10;;;16.10;62.10;;;;;;5046725;28;20433;-75
2021/03/26 13:34:22;;;;;;;11.40;4.88;;;16.00;62.20;;;;;;5047955;28;22991;-75
2021/03/26 13:36:58;;;;;;;10.05;5.20;;;16.00;62.30;;;;;;5030380;28;20502;-76
2021/03/26 13:39:33;;;;;;;9.40;5.50;;;15.90;62.90;;;;;;5046289;28;20485;-75